Time;durP1;ratioP1;P1;durP2;ratioP2;P2;SDS_P1;SDS_P2;PMS_P1;PMS_P2;Temp;Humidity;BMP_temperature;BMP_pressure;BME280_temperature;BME280_humidity;BME280_pressure;Samples;Min_cycle;Max_cycle;Signal;HPM_P1;HPM_P2
2023/08/09 00:02:25;;;;;;;2.45;1.58;;;19.70;72.40;;;;;;4976715;28;20449;-68
2023/08/09 00:04:52;;;;;;;1.88;1.52;;;19.70;72.40;;;;;;4976169;28;20037;-68
2023/08/09 00:07:18;;;;;;;2.13;1.50;;;19.70;72.50;;;;;;4976145;28;20106;-68
2023/08/09 00:09:44;;;;;;;1.77;1.30;;;19.70;72.30;;;;;;4976274;28;20058;-68
2023/08/09 00:12:10;;;;;;;1.42;1.27;;;19.70;72.60;;;;;;4978546;28;20122;-68
2023/08/09 00:14:36;;;;;;;3.13;1.30;;;19.70;72.40;;;;;;4979988;28;20042;-67
2023/08/09 00:17:03;;;;;;;2.78;1.50;;;19.80;72.50;;;;;;4979869;28;20414;-68
2023/08/09 00:19:30;;;;;;;2.22;1.60;;;19.70;72.40;;;;;;4979769;28;20057;-68
2023/08/09 00:21:55;;;;;;;2.90;1.42;;;19.80;72.10;;;;;;4979791;28;20055;-68
2023/08/09 00:24:21;;;;;;;2.60;1.42;;;19.80;72.10;;;;;;4978936;28;20055;-68
2023/08/09 00:26:47;;;;;;;1.55;1.30;;;19.80;71.90;;;;;;4980015;28;20026;-67
2023/08/09 00:29:13;;;;;;;1.73;1.25;;;19.80;72.30;;;;;;4980160;28;20323;-68
2023/08/09 00:31:42;;;;;;;1.73;1.40;;;19.80;72.60;;;;;;4979690;28;20080;-68
2023/08/09 00:34:11;;;;;;;2.30;1.60;;;19.80;72.50;;;;;;4980299;28;20023;-67
2023/08/09 00:36:37;;;;;;;1.40;1.30;;;19.70;72.30;;;;;;4979437;28;20027;-67
2023/08/09 00:39:05;;;;;;;1.77;1.48;;;19.70;72.20;;;;;;4979449;28;20146;-69
2023/08/09 00:41:32;;;;;;;1.88;1.33;;;19.70;72.10;;;;;;4979443;28;20150;-67
2023/08/09 00:43:59;;;;;;;1.42;1.33;;;19.80;72.30;;;;;;4979980;28;20019;-68
2023/08/09 00:46:27;;;;;;;1.90;1.52;;;19.70;72.30;;;;;;4979627;28;20022;-68
2023/08/09 00:48:54;;;;;;;1.63;1.15;;;19.70;72.10;;;;;;4979485;28;20383;-68
2023/08/09 00:51:20;;;;;;;1.67;1.25;;;19.80;72.20;;;;;;4979859;28;20038;-68
2023/08/09 00:53:48;;;;;;;2.22;1.30;;;19.80;72.00;;;;;;4979782;28;20057;-68
2023/08/09 00:56:14;;;;;;;1.65;1.48;;;19.80;71.80;;;;;;4979142;28;20041;-68
2023/08/09 00:58:40;;;;;;;1.52;1.42;;;19.80;71.80;;;;;;4979039;28;20054;-68
2023/08/09 01:01:06;;;;;;;1.92;1.40;;;19.80;72.00;;;;;;4979069;28;20109;-68
2023/08/09 01:03:35;;;;;;;3.35;1.67;;;19.70;71.90;;;;;;4979018;28;20047;-68
2023/08/09 01:06:06;;;;;;;3.58;1.58;;;19.80;71.80;;;;;;4978936;28;20039;-68
2023/08/09 01:08:44;;;;;;;2.05;1.40;;;19.70;71.80;;;;;;4977893;28;20394;-68
2023/08/09 01:11:26;;;;;;;3.42;1.40;;;19.80;72.00;;;;;;4978950;28;20121;-68
2023/08/09 01:13:53;;;;;;;4.95;1.77;;;19.70;71.70;;;;;;4978258;28;20445;-68
2023/08/09 01:16:21;;;;;;;4.25;1.27;;;19.70;71.60;;;;;;4977260;28;20327;-68
2023/08/09 01:18:49;;;;;;;3.45;1.38;;;19.70;71.70;;;;;;4977815;28;20023;-68
2023/08/09 01:21:19;;;;;;;4.40;1.65;;;19.70;71.70;;;;;;4977831;28;20445;-67
2023/08/09 01:23:46;;;;;;;3.80;1.40;;;19.70;71.60;;;;;;4977633;28;20406;-67
2023/08/09 01:26:12;;;;;;;4.78;1.35;;;19.70;71.70;;;;;;4977470;28;20030;-68
2023/08/09 01:28:38;;;;;;;2.42;1.27;;;19.70;71.70;;;;;;4977656;28;20033;-68
2023/08/09 01:31:04;;;;;;;3.40;1.48;;;19.70;71.70;;;;;;4977769;28;20407;-68
2023/08/09 01:33:30;;;;;;;4.13;1.50;;;19.70;71.80;;;;;;4977693;28;20027;-68
2023/08/09 01:36:18;;;;;;;3.45;1.38;;;19.70;71.90;;;;;;4977642;28;20035;-68
2023/08/09 01:39:00;;;;;;;3.63;1.40;;;19.70;71.80;;;;;;4977837;28;20033;-68
2023/08/09 01:43:57;;;;;;;2.08;1.63;;;19.70;71.70;;;;;;4978104;28;20034;-68
2023/08/09 01:46:25;;;;;;;1.58;1.45;;;19.70;71.60;;;;;;4977598;28;20027;-68
2023/08/09 01:49:08;;;;;;;2.80;1.58;;;19.70;71.80;;;;;;4977457;28;20165;-68
2023/08/09 01:51:38;;;;;;;1.83;1.23;;;19.70;72.00;;;;;;4977252;28;20034;-67
2023/08/09 01:54:05;;;;;;;3.55;1.50;;;19.70;71.60;;;;;;4977074;28;20338;-68
2023/08/09 01:56:34;;;;;;;2.33;1.40;;;19.70;71.60;;;;;;4977330;28;20030;-68
2023/08/09 01:59:04;;;;;;;3.53;1.20;;;19.60;71.60;;;;;;4977392;28;20487;-68
2023/08/09 02:01:33;;;;;;;3.92;1.45;;;19.60;71.70;;;;;;4977043;28;20109;-68
2023/08/09 02:04:03;;;;;;;1.55;1.20;;;19.60;71.80;;;;;;4976994;28;20098;-68
2023/08/09 02:06:34;;;;;;;3.00;1.50;;;19.70;71.90;;;;;;4976941;28;20038;-68
2023/08/09 02:09:06;;;;;;;1.40;1.30;;;19.60;72.00;;;;;;4977399;28;20437;-67
2023/08/09 02:11:38;;;;;;;2.57;1.20;;;19.60;72.00;;;;;;4916575;28;1745186;-68
2023/08/09 02:14:09;;;;;;;1.40;1.20;;;19.60;72.00;;;;;;4978077;28;20037;-67
2023/08/09 02:16:38;;;;;;;3.65;1.50;;;19.60;72.10;;;;;;4977691;28;20105;-68
2023/08/09 02:19:07;;;;;;;2.88;1.60;;;19.60;72.10;;;;;;4977602;28;20019;-68
2023/08/09 02:21:33;;;;;;;2.05;1.40;;;19.70;72.20;;;;;;4977564;28;20034;-67
2023/08/09 02:24:05;;;;;;;3.65;1.35;;;19.70;72.30;;;;;;4978101;28;20027;-68
2023/08/09 02:26:33;;;;;;;2.10;1.60;;;19.60;72.30;;;;;;4977600;28;20158;-68
2023/08/09 02:29:01;;;;;;;4.18;2.00;;;19.60;72.40;;;;;;4977639;28;20031;-68
2023/08/09 02:31:31;;;;;;;3.88;2.08;;;19.60;72.70;;;;;;4977354;28;20516;-68
2023/08/09 02:33:58;;;;;;;3.00;2.05;;;19.60;72.50;;;;;;4976746;28;20026;-68
2023/08/09 02:36:26;;;;;;;4.65;2.05;;;19.50;72.60;;;;;;4977816;28;20054;-67
2023/08/09 02:38:52;;;;;;;2.70;2.20;;;19.50;72.70;;;;;;4977519;28;20038;-68
2023/08/09 02:41:19;;;;;;;2.85;2.03;;;19.50;72.70;;;;;;4977320;28;20353;-68
2023/08/09 02:43:45;;;;;;;2.47;1.90;;;19.50;72.80;;;;;;4977493;28;20098;-67
2023/08/09 02:46:14;;;;;;;2.20;1.85;;;19.50;72.90;;;;;;4977480;28;20449;-68
2023/08/09 02:48:42;;;;;;;3.28;1.73;;;19.50;73.10;;;;;;4977373;28;20508;-68
2023/08/09 02:51:08;;;;;;;3.50;1.80;;;19.40;72.90;;;;;;4977161;28;20031;-68
2023/08/09 02:53:57;;;;;;;3.25;1.88;;;19.50;72.90;;;;;;4977354;28;20110;-68
2023/08/09 02:56:26;;;;;;;2.70;1.85;;;19.50;73.10;;;;;;4977581;28;20062;-68
2023/08/09 02:58:53;;;;;;;2.83;1.92;;;19.40;73.20;;;;;;4976853;28;20445;-68
2023/08/09 03:01:19;;;;;;;3.20;2.15;;;19.40;73.30;;;;;;4976960;28;20038;-68
2023/08/09 03:03:45;;;;;;;3.97;2.20;;;19.40;73.40;;;;;;4976870;28;20054;-68
2023/08/09 03:06:11;;;;;;;2.42;1.70;;;19.30;73.40;;;;;;4977146;28;20057;-68
2023/08/09 03:08:41;;;;;;;2.47;1.88;;;19.30;73.40;;;;;;4976696;28;20054;-67
2023/08/09 03:11:07;;;;;;;2.70;1.60;;;19.30;73.60;;;;;;4976593;28;20038;-68
2023/08/09 03:13:33;;;;;;;1.60;1.50;;;19.30;73.80;;;;;;4977509;28;20034;-68
2023/08/09 03:15:59;;;;;;;2.92;1.73;;;19.30;73.80;;;;;;4976668;28;20058;-69
2023/08/09 03:18:25;;;;;;;2.78;1.80;;;19.30;73.50;;;;;;4976525;28;20358;-68
2023/08/09 03:20:52;;;;;;;2.03;1.85;;;19.40;73.60;;;;;;4976872;28;20354;-68
2023/08/09 03:23:20;;;;;;;3.45;2.05;;;19.40;73.60;;;;;;4976628;28;20023;-67
2023/08/09 03:25:46;;;;;;;3.53;1.98;;;19.40;74.60;;;;;;4976451;28;20051;-68
2023/08/09 03:28:12;;;;;;;1.70;1.60;;;19.30;74.80;;;;;;4977040;28;20399;-68
2023/08/09 03:30:38;;;;;;;4.35;1.90;;;19.30;74.40;;;;;;4976471;28;20027;-68
2023/08/09 03:33:04;;;;;;;3.33;1.75;;;19.30;74.10;;;;;;4976989;28;20090;-68
2023/08/09 03:35:31;;;;;;;2.00;1.58;;;19.40;74.30;;;;;;4976668;28;20035;-68
2023/08/09 03:37:58;;;;;;;3.03;1.70;;;19.40;74.20;;;;;;4976313;28;20039;-68
2023/08/09 03:40:25;;;;;;;7.00;1.70;;;19.40;74.10;;;;;;4976615;28;20038;-68
2023/08/09 03:42:51;;;;;;;2.00;1.80;;;19.40;73.90;;;;;;4977413;28;20031;-67
2023/08/09 03:45:17;;;;;;;1.58;1.48;;;19.40;74.10;;;;;;4975697;28;20350;-68
2023/08/09 03:47:43;;;;;;;2.33;1.73;;;19.40;73.80;;;;;;4976042;28;20039;-68
2023/08/09 03:50:10;;;;;;;3.97;1.83;;;19.40;73.80;;;;;;4976484;28;20073;-68
2023/08/09 03:52:36;;;;;;;3.53;1.77;;;19.40;73.80;;;;;;4976544;28;20046;-68
2023/08/09 03:55:04;;;;;;;3.47;1.50;;;19.40;73.80;;;;;;4976249;28;20031;-68
2023/08/09 03:57:30;;;;;;;3.38;1.70;;;19.40;73.90;;;;;;4976099;28;20457;-67
2023/08/09 03:59:56;;;;;;;2.78;1.60;;;19.40;74.00;;;;;;4976436;28;20027;-68
2023/08/09 04:02:22;;;;;;;2.85;1.90;;;19.30;74.00;;;;;;4976446;28;20034;-68
2023/08/09 04:04:49;;;;;;;2.30;1.35;;;19.30;74.10;;;;;;4976664;28;20023;-68
2023/08/09 04:07:16;;;;;;;2.08;1.60;;;19.30;74.00;;;;;;4976156;28;20080;-67
2023/08/09 04:09:42;;;;;;;2.22;1.60;;;19.30;73.80;;;;;;4976065;28;20031;-68
2023/08/09 04:12:22;;;;;;;2.45;1.73;;;19.20;74.20;;;;;;4975536;28;20101;-67
2023/08/09 04:17:16;;;;;;;3.35;1.92;;;19.20;74.00;;;;;;4976724;28;20453;-67
2023/08/09 04:19:43;;;;;;;2.80;1.50;;;19.20;74.20;;;;;;4975990;28;20035;-67
2023/08/09 04:22:08;;;;;;;3.22;1.73;;;19.20;74.40;;;;;;4976062;28;20038;-68
2023/08/09 04:24:34;;;;;;;3.20;1.75;;;19.20;74.50;;;;;;4976540;28;20022;-68
2023/08/09 04:27:01;;;;;;;2.42;1.85;;;19.20;74.30;;;;;;4976499;28;20041;-68
2023/08/09 04:29:27;;;;;;;3.35;1.90;;;19.20;74.20;;;;;;4976068;28;20034;-68
2023/08/09 04:31:53;;;;;;;3.10;2.25;;;19.20;74.30;;;;;;4976490;28;20158;-68
2023/08/09 04:34:19;;;;;;;2.63;1.90;;;19.20;74.40;;;;;;4976497;28;20401;-69
2023/08/09 04:36:45;;;;;;;4.22;2.13;;;19.20;74.20;;;;;;4975836;28;20039;-68
2023/08/09 04:39:12;;;;;;;3.55;1.92;;;19.20;74.30;;;;;;4975796;28;20460;-67
2023/08/09 04:41:38;;;;;;;4.25;2.20;;;19.20;74.50;;;;;;4976362;28;20459;-68
2023/08/09 04:44:04;;;;;;;2.75;1.90;;;19.20;74.30;;;;;;4975841;28;20022;-68
2023/08/09 04:46:30;;;;;;;3.25;1.95;;;19.30;74.70;;;;;;4976109;28;20050;-68
2023/08/09 04:48:57;;;;;;;2.35;1.98;;;19.30;74.40;;;;;;4975709;28;20081;-68
2023/08/09 04:51:23;;;;;;;3.97;2.00;;;19.40;74.30;;;;;;4975754;28;20045;-68
2023/08/09 04:53:49;;;;;;;3.13;1.63;;;19.50;74.40;;;;;;4976253;28;20106;-68
2023/08/09 04:56:16;;;;;;;2.17;1.52;;;19.60;74.10;;;;;;4975650;28;20026;-68
2023/08/09 04:58:42;;;;;;;2.85;1.60;;;20.10;73.90;;;;;;4978739;28;20023;-68
2023/08/09 05:01:08;;;;;;;2.63;1.50;;;20.90;72.90;;;;;;4979161;28;20102;-68
2023/08/09 05:06:01;;;;;;;1.83;1.40;;;23.60;68.20;;;;;;4979641;28;20512;-68
2023/08/09 05:08:28;;;;;;;1.80;1.40;;;24.90;64.90;;;;;;4979267;28;20433;-68
2023/08/09 05:10:56;;;;;;;3.95;1.60;;;26.20;62.00;;;;;;4979007;28;20019;-68
2023/08/09 05:13:22;;;;;;;2.25;1.40;;;27.00;58.60;;;;;;4978911;28;20034;-68
2023/08/09 05:15:48;;;;;;;2.72;1.50;;;27.10;57.30;;;;;;4978888;28;20026;-68
2023/08/09 05:18:14;;;;;;;1.85;1.30;;;27.00;56.40;;;;;;4979384;28;20035;-68
2023/08/09 05:20:40;;;;;;;2.22;1.20;;;26.60;56.90;;;;;;4978776;28;20019;-68
2023/08/09 05:23:09;;;;;;;2.55;1.30;;;26.00;57.80;;;;;;4978975;28;20031;-68
2023/08/09 05:25:35;;;;;;;3.35;1.50;;;25.40;58.70;;;;;;4979117;28;20025;-67
2023/08/09 05:28:02;;;;;;;1.75;1.50;;;24.90;59.90;;;;;;4978568;28;20037;-67
2023/08/09 05:30:29;;;;;;;3.38;1.95;;;24.50;60.70;;;;;;4978508;28;20031;-68
2023/08/09 05:32:54;;;;;;;2.38;1.58;;;24.40;61.30;;;;;;4978506;28;20119;-68
2023/08/09 05:35:20;;;;;;;2.50;1.45;;;24.20;61.70;;;;;;4978779;28;20098;-68
2023/08/09 05:37:46;;;;;;;2.33;1.70;;;24.20;62.10;;;;;;4977383;28;20031;-68
2023/08/09 05:40:13;;;;;;;3.30;1.48;;;24.30;62.10;;;;;;4978366;28;20110;-67
2023/08/09 05:42:39;;;;;;;3.42;1.60;;;24.50;61.80;;;;;;4978340;28;20031;-68
2023/08/09 05:45:06;;;;;;;3.25;1.42;;;24.80;61.40;;;;;;4978248;28;20033;-68
2023/08/09 05:47:32;;;;;;;1.92;1.60;;;25.10;60.60;;;;;;4978793;28;20053;-68
2023/08/09 05:49:58;;;;;;;2.55;1.80;;;25.40;60.00;;;;;;4977167;28;20030;-68
2023/08/09 05:52:24;;;;;;;4.82;1.63;;;25.60;59.30;;;;;;4978417;28;20077;-68
2023/08/09 05:54:50;;;;;;;1.67;1.55;;;26.00;58.50;;;;;;4978442;28;20026;-68
2023/08/09 05:57:16;;;;;;;5.85;2.00;;;26.30;57.90;;;;;;4978275;28;20038;-68
2023/08/09 05:59:42;;;;;;;2.35;1.30;;;26.40;57.30;;;;;;4978481;28;20031;-68
2023/08/09 06:02:08;;;;;;;1.92;1.50;;;26.50;56.70;;;;;;4978268;28;20051;-68
2023/08/09 06:04:35;;;;;;;3.03;1.50;;;26.70;56.60;;;;;;4977990;28;20034;-68
2023/08/09 06:07:05;;;;;;;4.97;1.48;;;26.90;56.00;;;;;;4978450;28;20035;-68
2023/08/09 06:09:31;;;;;;;1.67;1.20;;;26.60;55.70;;;;;;4977333;28;20100;-68
2023/08/09 06:11:57;;;;;;;3.38;1.50;;;26.40;56.30;;;;;;4977612;28;20073;-68
2023/08/09 06:14:25;;;;;;;2.03;1.23;;;26.30;56.50;;;;;;4977779;28;20062;-68
2023/08/09 06:16:53;;;;;;;4.40;1.33;;;26.20;56.80;;;;;;4977565;28;20030;-68
2023/08/09 06:19:19;;;;;;;1.33;1.13;;;26.00;57.00;;;;;;4977658;28;20023;-68
2023/08/09 06:21:45;;;;;;;2.30;1.40;;;25.80;57.40;;;;;;4977754;28;20022;-68
2023/08/09 06:24:11;;;;;;;3.60;1.30;;;25.60;57.60;;;;;;4977683;28;20026;-68
2023/08/09 06:26:37;;;;;;;2.53;1.27;;;25.30;57.50;;;;;;4977631;28;20027;-69
2023/08/09 06:29:04;;;;;;;3.88;1.20;;;25.10;58.10;;;;;;4977200;28;20042;-69
2023/08/09 06:31:31;;;;;;;3.03;1.60;;;25.00;58.50;;;;;;4976666;28;20027;-68
2023/08/09 06:33:58;;;;;;;1.85;1.20;;;24.80;58.60;;;;;;4977522;28;20053;-69
2023/08/09 06:36:24;;;;;;;1.80;1.40;;;24.60;59.00;;;;;;4977026;28;20472;-68
2023/08/09 06:38:50;;;;;;;3.55;1.10;;;24.30;59.50;;;;;;4977536;28;20023;-68
2023/08/09 06:41:16;;;;;;;4.13;1.20;;;24.20;60.10;;;;;;4977029;28;20117;-68
2023/08/09 06:43:42;;;;;;;2.80;1.42;;;24.00;60.70;;;;;;4976992;28;20458;-68
2023/08/09 06:46:08;;;;;;;3.55;1.50;;;23.90;61.30;;;;;;4977017;28;20512;-68
2023/08/09 06:48:35;;;;;;;5.38;1.58;;;23.70;61.30;;;;;;4976894;28;20037;-69
2023/08/09 06:51:01;;;;;;;2.05;1.30;;;23.60;61.40;;;;;;4977160;28;20113;-68
2023/08/09 06:53:35;;;;;;;2.60;1.45;;;23.50;61.90;;;;;;4975875;28;20026;-67
2023/08/09 06:56:04;;;;;;;3.03;1.33;;;23.40;62.20;;;;;;4976761;28;20407;-68
2023/08/09 06:58:31;;;;;;;1.70;1.38;;;23.40;62.30;;;;;;4976611;28;20078;-68
2023/08/09 07:00:58;;;;;;;1.33;1.00;;;23.30;62.40;;;;;;4976690;28;20022;-68
2023/08/09 07:03:24;;;;;;;1.73;1.30;;;23.40;62.60;;;;;;4976971;28;20430;-68
2023/08/09 07:05:50;;;;;;;1.98;1.20;;;23.40;62.50;;;;;;4976702;28;20027;-68
2023/08/09 07:08:16;;;;;;;2.33;1.20;;;23.40;62.20;;;;;;4976603;28;20041;-68
2023/08/09 07:10:43;;;;;;;1.52;1.35;;;23.40;62.20;;;;;;4977045;28;20034;-69
2023/08/09 07:13:09;;;;;;;3.88;1.40;;;23.40;62.10;;;;;;4976407;28;20054;-68
2023/08/09 07:15:37;;;;;;;6.03;1.45;;;23.40;62.30;;;;;;4976502;28;20042;-68
2023/08/09 07:18:03;;;;;;;3.00;1.38;;;23.40;61.90;;;;;;4976331;28;20360;-69
2023/08/09 07:20:29;;;;;;;3.20;1.35;;;23.50;62.00;;;;;;4976164;28;20030;-68
2023/08/09 07:22:55;;;;;;;2.15;1.30;;;23.50;62.00;;;;;;4976687;28;20026;-68
2023/08/09 07:25:22;;;;;;;2.17;1.20;;;23.70;61.40;;;;;;4976629;28;20338;-68
2023/08/09 07:27:49;;;;;;;3.47;1.40;;;23.90;61.40;;;;;;4977104;28;20038;-68
2023/08/09 07:30:16;;;;;;;2.97;1.38;;;24.10;61.40;;;;;;4976458;28;20023;-68
2023/08/09 07:32:43;;;;;;;2.80;1.48;;;24.50;60.70;;;;;;4976806;28;20084;-68
2023/08/09 07:35:10;;;;;;;1.48;1.00;;;24.90;60.00;;;;;;4977057;28;20034;-68
2023/08/09 07:37:41;;;;;;;1.15;1.02;;;25.40;58.60;;;;;;4976959;28;20038;-68
2023/08/09 07:40:08;;;;;;;1.83;1.10;;;25.60;57.50;;;;;;4976690;28;20066;-68
2023/08/09 07:42:36;;;;;;;1.90;1.27;;;25.90;56.10;;;;;;4976378;28;20031;-69
2023/08/09 07:45:03;;;;;;;1.25;1.08;;;26.10;56.50;;;;;;4976298;28;20118;-68
2023/08/09 07:47:29;;;;;;;1.83;1.40;;;26.40;55.70;;;;;;4976926;28;20031;-69
2023/08/09 07:49:55;;;;;;;1.40;1.10;;;26.60;55.10;;;;;;4976292;28;20026;-68
2023/08/09 07:52:22;;;;;;;4.10;1.30;;;26.80;54.40;;;;;;4976287;28;20452;-69
2023/08/09 07:54:48;;;;;;;4.05;1.33;;;26.90;54.10;;;;;;4976247;28;20030;-68
2023/08/09 07:57:14;;;;;;;1.55;1.02;;;27.10;53.90;;;;;;4976477;28;20061;-68
2023/08/09 07:59:40;;;;;;;2.88;1.33;;;27.30;53.70;;;;;;4976426;28;20027;-69
2023/08/09 08:02:09;;;;;;;2.35;1.50;;;27.40;53.20;;;;;;4976762;28;20023;-68
2023/08/09 08:04:35;;;;;;;4.35;1.50;;;27.30;52.60;;;;;;4976092;28;20071;-68
2023/08/09 08:07:03;;;;;;;4.97;1.50;;;27.20;52.80;;;;;;4975310;28;20437;-69
2023/08/09 08:09:32;;;;;;;1.88;1.17;;;27.10;53.10;;;;;;4976153;28;20357;-69
2023/08/09 08:11:59;;;;;;;2.28;1.10;;;27.00;53.60;;;;;;4975914;28;20129;-69
2023/08/09 08:14:25;;;;;;;1.50;1.20;;;27.00;53.30;;;;;;4976675;28;20027;-68
2023/08/09 08:16:51;;;;;;;4.45;1.38;;;26.90;53.70;;;;;;4976331;28;20374;-68
2023/08/09 08:19:21;;;;;;;2.10;1.13;;;26.90;54.00;;;;;;4976037;28;20030;-68
2023/08/09 08:21:48;;;;;;;2.45;1.25;;;26.90;53.90;;;;;;4975806;28;20034;-67
2023/08/09 08:24:14;;;;;;;1.75;0.82;;;26.90;53.40;;;;;;4975973;28;20054;-69
2023/08/09 08:26:40;;;;;;;1.73;1.15;;;26.80;53.70;;;;;;4974191;28;20027;-68
2023/08/09 08:29:06;;;;;;;1.83;1.10;;;26.90;54.00;;;;;;4975896;28;20023;-68
2023/08/09 08:31:32;;;;;;;3.05;1.27;;;26.90;54.00;;;;;;4976061;28;20102;-68
2023/08/09 08:33:59;;;;;;;0.98;0.93;;;26.90;54.00;;;;;;4979582;28;20400;-68
2023/08/09 08:36:25;;;;;;;1.95;1.00;;;26.90;53.90;;;;;;4979315;28;20089;-69
2023/08/09 08:38:52;;;;;;;1.23;0.95;;;27.00;54.10;;;;;;4979502;28;20026;-68
2023/08/09 08:41:19;;;;;;;2.70;1.27;;;27.00;54.00;;;;;;4979527;28;20552;-68
2023/08/09 08:43:45;;;;;;;1.10;0.90;;;27.00;54.10;;;;;;4979540;28;20437;-68
2023/08/09 08:46:16;;;;;;;3.22;1.10;;;27.00;54.20;;;;;;4979767;28;20460;-68
2023/08/09 08:48:48;;;;;;;2.22;1.33;;;27.00;54.30;;;;;;4979642;28;20107;-68
2023/08/09 08:51:14;;;;;;;1.20;1.10;;;27.20;54.20;;;;;;4979653;28;20031;-69
2023/08/09 08:53:41;;;;;;;1.60;1.20;;;27.30;54.00;;;;;;4979593;28;20397;-69
2023/08/09 08:56:10;;;;;;;1.27;1.17;;;27.30;53.50;;;;;;4979251;28;20037;-68
2023/08/09 08:58:36;;;;;;;1.92;1.33;;;27.30;53.30;;;;;;4979343;28;20037;-68
2023/08/09 09:01:03;;;;;;;1.58;1.00;;;27.30;53.10;;;;;;4979247;28;20023;-68
2023/08/09 09:03:29;;;;;;;1.45;1.00;;;27.20;53.40;;;;;;4979389;28;20027;-68
2023/08/09 09:05:56;;;;;;;3.45;1.13;;;27.30;53.50;;;;;;4977056;28;20102;-68
2023/08/09 09:08:24;;;;;;;2.15;1.05;;;27.20;53.40;;;;;;4977254;28;20357;-69
2023/08/09 09:10:54;;;;;;;1.90;1.27;;;27.30;53.50;;;;;;4977199;28;20149;-68
2023/08/09 09:13:27;;;;;;;1.15;1.05;;;27.40;53.20;;;;;;4976732;28;20456;-68
2023/08/09 09:15:54;;;;;;;1.50;1.10;;;27.40;53.10;;;;;;4977804;28;20122;-68
2023/08/09 09:18:21;;;;;;;1.92;1.20;;;27.40;52.70;;;;;;4978287;28;20050;-68
2023/08/09 09:20:47;;;;;;;2.00;0.93;;;27.40;52.90;;;;;;4978168;28;20027;-68
2023/08/09 09:23:30;;;;;;;2.10;1.40;;;27.40;53.00;;;;;;4978664;28;20033;-68
2023/08/09 09:26:09;;;;;;;1.42;1.33;;;27.40;53.10;;;;;;4978258;28;20033;-68
2023/08/09 09:28:41;;;;;;;2.55;1.17;;;27.40;53.10;;;;;;4977689;28;20402;-69
2023/08/09 09:31:11;;;;;;;3.03;1.10;;;27.40;53.30;;;;;;4978939;28;20065;-68
2023/08/09 09:33:39;;;;;;;1.63;1.23;;;27.50;53.40;;;;;;4978889;28;20031;-69
2023/08/09 09:36:11;;;;;;;3.17;1.02;;;27.50;53.20;;;;;;4978982;28;20101;-68
2023/08/09 09:38:38;;;;;;;1.92;1.30;;;27.70;53.10;;;;;;4978455;28;20027;-68
2023/08/09 09:41:08;;;;;;;3.03;1.17;;;27.70;53.20;;;;;;4978498;28;20030;-68
2023/08/09 09:43:41;;;;;;;1.90;1.00;;;27.80;52.80;;;;;;4978266;28;20357;-68
2023/08/09 09:46:25;;;;;;;2.55;1.27;;;27.80;52.20;;;;;;4978272;28;20058;-68
2023/08/09 09:49:01;;;;;;;2.47;1.35;;;27.80;52.40;;;;;;4978844;28;20027;-68
2023/08/09 09:51:27;;;;;;;1.70;1.40;;;27.70;52.40;;;;;;4979029;28;20024;-68
2023/08/09 09:53:55;;;;;;;1.02;0.88;;;27.70;52.40;;;;;;4978251;28;20063;-68
2023/08/09 09:56:22;;;;;;;1.25;1.13;;;27.70;52.40;;;;;;4978086;28;20079;-68
2023/08/09 09:58:48;;;;;;;1.17;0.80;;;27.70;52.50;;;;;;4978097;28;20070;-69
2023/08/09 10:01:19;;;;;;;1.02;0.90;;;27.70;52.30;;;;;;4978294;28;20035;-68
2023/08/09 10:03:48;;;;;;;1.17;0.93;;;27.70;52.30;;;;;;4978303;28;20105;-68
2023/08/09 10:06:28;;;;;;;2.63;1.02;;;27.80;52.00;;;;;;4978464;28;20027;-69
2023/08/09 10:08:56;;;;;;;2.72;0.95;;;27.90;52.00;;;;;;4978227;28;20038;-67
2023/08/09 10:11:25;;;;;;;1.67;0.80;;;28.00;51.90;;;;;;4977886;28;20101;-68
2023/08/09 10:13:54;;;;;;;1.92;1.13;;;28.10;51.60;;;;;;4977523;28;20022;-68
2023/08/09 10:16:22;;;;;;;1.85;1.10;;;28.20;51.10;;;;;;4977689;28;20389;-68
2023/08/09 10:18:52;;;;;;;1.40;1.30;;;28.20;51.10;;;;;;4977643;28;20058;-68
2023/08/09 10:21:21;;;;;;;1.90;1.13;;;28.30;50.90;;;;;;4978011;28;20023;-68
2023/08/09 10:24:13;;;;;;;1.30;1.10;;;28.30;51.00;;;;;;4977656;28;20034;-68
2023/08/09 10:26:44;;;;;;;1.70;1.40;;;28.40;51.00;;;;;;4976610;28;20034;-68
2023/08/09 10:29:24;;;;;;;1.45;1.20;;;28.60;50.90;;;;;;4976860;28;20035;-67
2023/08/09 10:31:52;;;;;;;1.67;1.13;;;28.60;50.80;;;;;;4977767;28;20058;-68
2023/08/09 10:34:41;;;;;;;3.30;1.55;;;28.60;50.70;;;;;;4977335;28;20034;-68
2023/08/09 10:37:09;;;;;;;1.60;1.50;;;28.60;50.40;;;;;;4961187;28;20023;-68
2023/08/09 10:39:36;;;;;;;1.88;1.30;;;28.60;50.10;;;;;;4977184;28;20026;-69
2023/08/09 10:42:08;;;;;;;2.15;1.50;;;28.60;50.30;;;;;;4977244;28;20424;-68
2023/08/09 10:44:48;;;;;;;1.00;1.00;;;28.60;50.40;;;;;;4976235;28;20039;-68
2023/08/09 10:47:26;;;;;;;2.30;1.40;;;28.60;50.30;;;;;;4977171;28;20033;-68
2023/08/09 10:49:54;;;;;;;5.28;1.67;;;28.60;50.20;;;;;;4977414;28;20416;-68
2023/08/09 10:52:51;;;;;;;1.67;1.38;;;28.70;49.80;;;;;;4977630;28;20058;-67
2023/08/09 10:55:19;;;;;;;1.13;1.02;;;28.70;49.90;;;;;;4977131;28;20455;-68
2023/08/09 10:57:50;;;;;;;2.08;1.23;;;28.70;49.60;;;;;;4976871;28;20114;-68
2023/08/09 11:00:18;;;;;;;2.97;1.42;;;28.70;49.40;;;;;;4976870;28;20030;-68
2023/08/09 11:02:48;;;;;;;2.53;1.40;;;28.80;49.50;;;;;;4960573;28;20364;-68
2023/08/09 11:05:15;;;;;;;1.48;1.33;;;28.70;49.20;;;;;;4977131;28;20058;-68
2023/08/09 11:07:45;;;;;;;3.53;1.15;;;28.50;49.70;;;;;;4977090;28;20026;-67
2023/08/09 11:10:15;;;;;;;2.38;1.10;;;28.60;49.80;;;;;;4991934;28;20088;-68
2023/08/09 11:12:46;;;;;;;0.98;0.82;;;28.50;49.90;;;;;;4976766;28;20082;-68
2023/08/09 11:15:12;;;;;;;1.40;0.88;;;28.50;50.20;;;;;;4977199;28;20113;-68
2023/08/09 11:17:50;;;;;;;4.68;1.23;;;28.50;50.20;;;;;;4976675;28;20078;-68
2023/08/09 11:20:17;;;;;;;1.58;1.00;;;28.60;49.90;;;;;;4991806;28;20023;-68
2023/08/09 11:22:56;;;;;;;1.88;1.20;;;28.60;49.70;;;;;;4976666;28;20026;-68
2023/08/09 11:25:23;;;;;;;1.48;0.90;;;28.70;49.80;;;;;;4975801;28;20030;-68
2023/08/09 11:27:54;;;;;;;2.05;0.95;;;28.90;49.60;;;;;;4976571;28;20327;-68
2023/08/09 11:30:23;;;;;;;0.98;0.90;;;28.90;49.40;;;;;;4976475;28;20319;-68
2023/08/09 11:32:59;;;;;;;0.98;0.88;;;29.00;49.40;;;;;;4975660;28;20030;-68
2023/08/09 11:35:43;;;;;;;2.85;1.02;;;29.10;49.20;;;;;;4975523;28;20030;-68
2023/08/09 11:38:13;;;;;;;3.13;0.95;;;29.20;49.40;;;;;;4976745;28;20361;-68
2023/08/09 11:41:05;;;;;;;0.68;0.68;;;29.30;49.30;;;;;;4976329;28;20496;-68
2023/08/09 11:43:34;;;;;;;1.35;0.88;;;29.40;48.70;;;;;;4973710;28;20038;-68
2023/08/09 11:48:51;;;;;;;1.75;1.20;;;29.50;48.10;;;;;;4976792;28;20378;-68
2023/08/09 11:51:21;;;;;;;3.45;1.30;;;29.40;47.80;;;;;;4976143;28;20347;-68
2023/08/09 11:53:50;;;;;;;1.35;1.00;;;29.40;47.70;;;;;;4976251;28;20338;-68
2023/08/09 11:56:23;;;;;;;2.45;1.05;;;29.20;47.90;;;;;;4976153;28;20066;-68
2023/08/09 11:58:52;;;;;;;2.50;1.23;;;29.30;48.10;;;;;;4976497;28;20055;-68
2023/08/09 12:01:27;;;;;;;2.90;0.90;;;29.40;47.70;;;;;;4976214;28;20168;-67
2023/08/09 12:03:58;;;;;;;3.55;1.17;;;29.40;47.50;;;;;;4976751;28;20030;-68
2023/08/09 12:06:45;;;;;;;2.42;0.90;;;29.30;47.60;;;;;;4976422;28;20038;-68
2023/08/09 12:09:31;;;;;;;2.33;1.13;;;29.30;47.70;;;;;;4979201;28;20070;-67
2023/08/09 12:12:10;;;;;;;1.60;1.05;;;29.30;47.70;;;;;;4979767;28;20106;-67
2023/08/09 12:14:41;;;;;;;1.65;1.00;;;29.40;47.50;;;;;;4979925;28;20034;-68
2023/08/09 12:17:44;;;;;;;4.80;1.00;;;29.40;47.50;;;;;;4980415;28;20027;-68
2023/08/09 12:20:13;;;;;;;5.20;1.10;;;29.40;47.80;;;;;;4980491;28;20019;-68
2023/08/09 12:22:41;;;;;;;1.25;1.13;;;29.50;47.40;;;;;;4979920;28;20093;-68
2023/08/09 12:25:10;;;;;;;1.83;1.27;;;29.50;47.00;;;;;;4979839;28;20022;-68
2023/08/09 12:27:39;;;;;;;1.40;1.00;;;29.40;47.00;;;;;;4979732;28;20026;-68
2023/08/09 12:30:11;;;;;;;3.55;1.30;;;29.40;47.10;;;;;;4979636;28;20037;-68
2023/08/09 12:32:55;;;;;;;4.35;1.50;;;29.50;47.00;;;;;;4981821;28;20050;-68
2023/08/09 12:35:21;;;;;;;2.03;1.20;;;29.40;46.90;;;;;;4979934;28;20030;-68
2023/08/09 12:37:47;;;;;;;5.70;1.40;;;29.20;47.10;;;;;;4979826;28;20059;-68
2023/08/09 12:40:13;;;;;;;3.67;1.40;;;28.80;47.60;;;;;;4979533;28;20106;-68
2023/08/09 12:42:41;;;;;;;1.90;1.27;;;28.80;48.10;;;;;;4979394;28;20034;-68
2023/08/09 12:45:08;;;;;;;1.15;1.05;;;28.70;48.50;;;;;;4994455;28;20357;-68
2023/08/09 12:47:37;;;;;;;1.63;1.30;;;28.80;48.50;;;;;;4979455;28;20046;-68
2023/08/09 12:50:04;;;;;;;2.88;1.50;;;28.90;48.40;;;;;;4994634;28;20027;-68
2023/08/09 12:52:30;;;;;;;2.40;1.33;;;29.10;48.30;;;;;;4978400;28;20331;-68
2023/08/09 12:54:56;;;;;;;1.63;1.20;;;29.30;48.10;;;;;;4979648;28;20031;-68
2023/08/09 12:57:21;;;;;;;4.70;1.50;;;29.40;48.10;;;;;;4979511;28;20349;-68
2023/08/09 12:59:54;;;;;;;2.72;1.00;;;29.50;47.90;;;;;;4979413;28;20073;-68
2023/08/09 13:02:23;;;;;;;2.70;1.40;;;29.60;47.90;;;;;;4979774;28;20023;-67
2023/08/09 13:04:50;;;;;;;2.60;1.15;;;29.60;47.70;;;;;;4979178;28;20030;-68
2023/08/09 13:07:19;;;;;;;2.40;1.58;;;29.60;47.70;;;;;;4979031;28;20089;-67